This is the latest recevied weather packets stored in our database for station/object PD2SKZ-12. If no packets are shown the sender has not sent any weather packets the latest 10 day(s).
| Time | Temp. | Humidity | Pressure | Rain* | Wind** | Luminosity | Snow |
|---|---|---|---|---|---|---|---|
| 1777598880 | 11.11° C | 55% | 1026.3 hPa | 0 mm | - | - | - |
| 1777598540 | 11.11° C | 55% | 1026.2 hPa | 0 mm | - | - | - |
| 1777594639 | 12.78° C | 50% | 1026.1 hPa | 0 mm | - | - | - |
| 1777591339 | 13.33° C | 48% | 1026.1 hPa | 0 mm | - | - | - |
| 1777588660 | 13.89° C | 45% | 1026 hPa | 0 mm | - | - | - |
| 1777588039 | 13.89° C | 45% | 1025.9 hPa | 0 mm | - | - | - |
| 1777586240 | 13.89° C | 43% | 1025.9 hPa | 0 mm | - | - | - |
| 1777585639 | 14.44° C | 42% | 1026 hPa | 0 mm | - | - | - |
| 1777583542 | 15° C | 39% | 1025.8 hPa | 0 mm | - | - | - |
| 1777580540 | 16.11° C | 35% | 1025.7 hPa | 0 mm | - | - | - |
| 1777579939 | 16.11° C | 35% | 1025.7 hPa | 0 mm | - | - | - |
| 1777577540 | 16.67° C | 35% | 1025.5 hPa | 0 mm | - | - | - |
| 1777577240 | 16.67° C | 35% | 1025.4 hPa | 0 mm | - | - | - |
| 1777574840 | 17.78° C | 32% | 1025 hPa | 0 mm | - | - | - |
| 1777573361 | 18.33° C | 30% | 1024.9 hPa | 0 mm | - | - | - |
| 1777572143 | 18.89° C | 29% | 1025 hPa | 0 mm | - | - | - |
| 1777571840 | 18.89° C | 28% | 1025.1 hPa | 0 mm | - | - | - |
| 1777571260 | 19.44° C | 28% | 1025.1 hPa | 0 mm | - | - | - |
| 1777567340 | 21.11° C | 24% | 1025 hPa | 0 mm | - | - | - |
| 1777567040 | 21.11° C | 24% | 1025 hPa | 0 mm | - | - | - |
| 1777566463 | 21.67° C | 24% | 1025.1 hPa | 0 mm | - | - | - |
| 1777559240 | 21.67° C | 24% | 1025.8 hPa | 0 mm | - | - | - |
| 1777558940 | 20° C | 25% | 1025.9 hPa | 0 mm | - | - | - |
| 1777558640 | 20.56° C | 25% | 1025.9 hPa | 0 mm | - | - | - |
| 1777557440 | 21.11° C | 25% | 1026.3 hPa | 0 mm | - | - | - |
* Rain latest hour (hover to see other rain measurements)
** Current wind speed in m/s (hover to see current wind gust speed)